createdAt,value
2018-04-15T00:00:21.769Z,17.20
2018-04-15T00:02:50.194Z,17.21
2018-04-15T00:05:18.590Z,17.08
2018-04-15T00:07:47.044Z,17.50
2018-04-15T00:10:15.565Z,17.60
2018-04-15T00:12:43.954Z,17.42
2018-04-15T00:15:12.745Z,17.50
2018-04-15T00:17:41.148Z,17.57
2018-04-15T00:20:09.691Z,17.51
2018-04-15T00:22:38.204Z,17.66
2018-04-15T00:25:06.568Z,17.64
2018-04-15T00:27:34.957Z,17.66
2018-04-15T00:30:03.328Z,17.64
2018-04-15T00:32:31.766Z,17.40
2018-04-15T00:35:00.140Z,17.71
2018-04-15T00:37:28.515Z,17.55
2018-04-15T00:39:56.878Z,17.39
2018-04-15T00:42:25.379Z,17.39
2018-04-15T00:44:53.819Z,17.60
2018-04-15T00:47:22.183Z,17.41
2018-04-15T00:49:50.582Z,17.53
2018-04-15T00:52:18.959Z,17.66
2018-04-15T00:54:47.311Z,17.41
2018-04-15T00:57:15.694Z,17.77
2018-04-15T00:59:44.112Z,17.67
2018-04-15T01:02:12.702Z,17.25
2018-04-15T01:04:41.789Z,17.28
2018-04-15T01:07:10.153Z,17.52
2018-04-15T01:09:38.533Z,17.09
2018-04-15T01:12:07.074Z,17.35
2018-04-15T01:14:35.440Z,17.29
2018-04-15T01:17:03.818Z,17.37
2018-04-15T01:19:32.296Z,17.64
2018-04-15T01:22:00.684Z,17.76
2018-04-15T01:24:29.079Z,17.22
2018-04-15T01:26:57.546Z,17.16
2018-04-15T01:29:25.959Z,17.54
2018-04-15T01:31:54.351Z,17.30
2018-04-15T01:34:22.784Z,17.53
2018-04-15T01:36:51.361Z,17.53
2018-04-15T01:39:19.768Z,17.67
2018-04-15T01:41:48.194Z,17.40
2018-04-15T01:44:16.694Z,17.64
2018-04-15T01:46:45.090Z,17.61
2018-04-15T01:49:13.514Z,17.47
2018-04-15T01:51:42.108Z,17.75
2018-04-15T01:54:10.510Z,17.35
2018-04-15T01:56:38.909Z,17.63
2018-04-15T01:59:07.428Z,17.68
2018-04-15T02:01:35.834Z,17.53
2018-04-15T02:04:04.432Z,17.32
2018-04-15T02:06:32.932Z,17.43
2018-04-15T02:09:01.406Z,17.37
2018-04-15T02:11:29.771Z,17.61
2018-04-15T02:13:58.138Z,17.82
2018-04-15T02:16:26.649Z,17.70
2018-04-15T02:18:55.032Z,17.84
2018-04-15T02:21:23.389Z,17.24
2018-04-15T02:23:51.766Z,17.58
2018-04-15T02:26:20.139Z,17.55
2018-04-15T02:28:48.537Z,17.73
2018-04-15T02:31:16.932Z,17.41
2018-04-15T02:33:45.487Z,17.63
2018-04-15T02:36:13.851Z,17.63
2018-04-15T02:38:42.212Z,17.94
2018-04-15T02:41:10.577Z,17.73
2018-04-15T02:43:38.934Z,17.22
2018-04-15T02:46:07.411Z,17.58
2018-04-15T02:48:35.770Z,17.81
2018-04-15T02:51:04.151Z,17.50
2018-04-15T02:53:32.510Z,17.52
2018-04-15T02:56:00.878Z,18.00
2018-04-15T02:58:29.353Z,17.79
2018-04-15T03:00:57.769Z,17.91
2018-04-15T03:03:26.150Z,17.87
2018-04-15T03:05:54.608Z,17.75
2018-04-15T03:08:23.076Z,17.71
2018-04-15T03:10:51.474Z,17.77
2018-04-15T03:13:19.876Z,17.87
2018-04-15T03:15:48.270Z,17.81
2018-04-15T03:18:16.745Z,17.55
2018-04-15T03:20:45.127Z,17.87
2018-04-15T03:23:13.524Z,17.63
2018-04-15T03:25:41.888Z,17.78
2018-04-15T03:28:10.334Z,17.33
2018-04-15T03:30:39.622Z,17.53
2018-04-15T03:33:08.216Z,17.45
2018-04-15T03:35:36.599Z,17.51
2018-04-15T03:38:05.008Z,17.81
2018-04-15T03:40:33.388Z,17.74
2018-04-15T03:43:01.795Z,18.09
2018-04-15T03:45:30.379Z,18.00
2018-04-15T03:47:58.779Z,18.12
2018-04-15T03:50:27.154Z,17.83
2018-04-15T03:52:55.982Z,17.87
2018-04-15T03:55:24.611Z,17.88
2018-04-15T03:57:53.126Z,17.83
2018-04-15T04:00:21.535Z,17.73
2018-04-15T04:02:49.931Z,17.82
2018-04-15T04:05:18.376Z,17.36
2018-04-15T04:07:46.794Z,17.60
2018-04-15T04:10:15.319Z,17.99
2018-04-15T04:12:43.727Z,17.79
2018-04-15T04:15:12.128Z,17.46
2018-04-15T04:17:52.191Z,17.42
2018-04-15T04:20:32.342Z,17.72
2018-04-15T04:23:12.365Z,17.22
2018-04-15T04:25:52.509Z,17.54
2018-04-15T04:28:21.831Z,17.36
2018-04-15T04:30:50.258Z,17.63
2018-04-15T04:33:18.608Z,17.68
2018-04-15T04:35:47.013Z,17.30
2018-04-15T04:38:15.439Z,17.47
2018-04-15T04:40:43.807Z,17.51
2018-04-15T04:43:12.196Z,17.79
2018-04-15T04:45:40.617Z,17.91
2018-04-15T04:48:09.099Z,17.59
2018-04-15T04:50:37.618Z,17.55
2018-04-15T04:53:05.984Z,17.34
2018-04-15T04:55:34.358Z,17.44
2018-04-15T04:58:02.729Z,17.53
2018-04-15T05:00:31.148Z,17.49
2018-04-15T05:02:59.783Z,17.35
2018-04-15T05:05:28.223Z,17.32
2018-04-15T05:07:56.786Z,17.47
2018-04-15T05:10:25.204Z,17.51
2018-04-15T05:12:53.610Z,17.43
2018-04-15T05:15:22.166Z,17.26
2018-04-15T05:17:50.621Z,17.47
2018-04-15T05:20:19.080Z,17.26
2018-04-15T05:22:47.527Z,17.40
2018-04-15T05:25:15.969Z,17.66
2018-04-15T05:27:44.411Z,17.55
2018-04-15T05:30:12.825Z,17.52
2018-04-15T05:32:41.230Z,17.62
2018-04-15T05:35:09.649Z,17.52
2018-04-15T05:37:38.083Z,17.84
2018-04-15T05:40:06.543Z,17.81
2018-04-15T05:42:34.987Z,17.27
2018-04-15T05:45:03.394Z,17.25
2018-04-15T05:47:31.811Z,17.20
2018-04-15T05:50:00.218Z,17.26
2018-04-15T05:52:28.646Z,17.24
2018-04-15T05:54:57.048Z,17.30
2018-04-15T05:57:25.653Z,17.54
2018-04-15T05:59:54.062Z,17.81
2018-04-15T06:02:22.652Z,17.82
2018-04-15T06:04:51.047Z,17.71
2018-04-15T06:07:19.459Z,17.37
2018-04-15T06:09:47.843Z,17.89
2018-04-15T06:12:16.228Z,17.73
2018-04-15T06:14:44.660Z,17.79
2018-04-15T06:17:13.077Z,17.74
2018-04-15T06:19:41.479Z,17.79
2018-04-15T06:22:09.889Z,17.10
2018-04-15T06:24:38.334Z,17.19
2018-04-15T06:27:06.697Z,17.25
2018-04-15T06:29:35.096Z,17.53
2018-04-15T06:32:03.551Z,17.56
2018-04-15T06:34:32.003Z,17.85
2018-04-15T06:37:00.394Z,17.89
2018-04-15T06:39:28.809Z,18.07
2018-04-15T06:41:57.170Z,17.99
2018-04-15T06:44:25.539Z,17.90
2018-04-15T06:46:53.950Z,17.96
2018-04-15T06:49:22.406Z,17.88
2018-04-15T06:51:50.823Z,17.85
2018-04-15T06:54:19.552Z,18.02
2018-04-15T06:56:48.003Z,17.48
2018-04-15T06:59:16.363Z,17.94
2018-04-15T07:01:44.849Z,18.33
2018-04-15T07:04:13.231Z,17.74
2018-04-15T07:06:41.655Z,17.63
2018-04-15T07:09:10.096Z,17.93
2018-04-15T07:11:38.513Z,17.70
2018-04-15T07:14:06.949Z,18.00
2018-04-15T07:16:35.758Z,18.21
2018-04-15T07:19:04.567Z,18.26
2018-04-15T07:21:32.960Z,18.85
2018-04-15T07:24:02.210Z,18.53
2018-04-15T07:26:30.811Z,18.95
2018-04-15T07:28:59.218Z,18.89
2018-04-15T07:31:27.714Z,19.30
2018-04-15T07:33:56.137Z,18.91
2018-04-15T07:36:24.659Z,17.97
2018-04-15T07:38:53.046Z,18.29
2018-04-15T07:41:21.476Z,18.47
2018-04-15T07:43:50.096Z,18.61
2018-04-15T07:46:19.014Z,18.55
2018-04-15T07:48:47.599Z,18.37
2018-04-15T07:51:16.081Z,18.79
2018-04-15T07:53:44.569Z,18.35
2018-04-15T07:56:13.018Z,18.21
2018-04-15T07:58:41.421Z,18.88
2018-04-15T08:01:09.885Z,18.72
2018-04-15T08:03:38.304Z,18.74
2018-04-15T08:06:06.943Z,18.80
2018-04-15T08:08:35.782Z,18.39
2018-04-15T08:11:04.212Z,17.91
2018-04-15T08:13:33.277Z,17.96
2018-04-15T08:16:01.945Z,18.64
2018-04-15T08:18:30.723Z,18.61
2018-04-15T08:20:59.175Z,18.51
2018-04-15T08:23:27.551Z,18.52
2018-04-15T08:25:56.047Z,18.41
2018-04-15T08:28:24.446Z,18.29
2018-04-15T08:30:52.895Z,18.10
2018-04-15T08:33:21.636Z,18.86
2018-04-15T08:35:50.019Z,18.86
2018-04-15T08:38:19.280Z,19.29
2018-04-15T08:40:47.643Z,18.28
2018-04-15T08:43:16.180Z,18.29
2018-04-15T08:45:44.602Z,19.06
2018-04-15T08:48:12.978Z,18.25
2018-04-15T08:50:41.350Z,17.82
2018-04-15T08:53:09.768Z,18.61
2018-04-15T08:55:38.256Z,17.89
2018-04-15T08:58:07.005Z,17.80
2018-04-15T09:00:35.715Z,18.02
2018-04-15T09:03:04.479Z,18.05
2018-04-15T09:05:32.886Z,18.26
2018-04-15T09:08:01.397Z,18.12
2018-04-15T09:10:29.808Z,18.35
2018-04-15T09:12:58.283Z,18.21
2018-04-15T09:15:26.680Z,18.63
2018-04-15T09:17:55.102Z,17.83
2018-04-15T09:20:23.533Z,18.61
2018-04-15T09:22:52.220Z,19.33
2018-04-15T09:25:20.910Z,19.08
2018-04-15T09:27:49.343Z,20.21
2018-04-15T09:30:17.757Z,21.39
2018-04-15T09:32:46.137Z,22.01
2018-04-15T09:35:15.929Z,22.76
2018-04-15T09:37:44.897Z,21.94
2018-04-15T09:40:14.234Z,21.85
2018-04-15T09:42:42.683Z,20.42
2018-04-15T09:45:11.155Z,21.46
2018-04-15T09:47:39.779Z,21.75
2018-04-15T09:50:08.247Z,22.08
2018-04-15T09:52:36.645Z,21.94
2018-04-15T09:55:05.141Z,22.09
2018-04-15T09:57:33.591Z,21.82
2018-04-15T10:00:01.986Z,21.38
2018-04-15T10:02:30.371Z,20.34
2018-04-15T10:04:58.736Z,20.50
2018-04-15T10:07:27.177Z,21.01
2018-04-15T10:09:55.537Z,21.28
2018-04-15T10:12:24.219Z,21.49
2018-04-15T10:14:52.607Z,21.13
2018-04-15T10:17:21.232Z,21.59
2018-04-15T10:19:49.668Z,23.79
2018-04-15T10:22:18.091Z,25.54
2018-04-15T10:24:46.537Z,26.21
2018-04-15T10:27:15.843Z,27.58
2018-04-15T10:29:44.788Z,26.42
2018-04-15T10:32:13.228Z,27.20
2018-04-15T10:34:41.716Z,26.91
2018-04-15T10:37:10.275Z,26.27
2018-04-15T10:39:40.045Z,24.58
2018-04-15T10:42:08.564Z,25.08
2018-04-15T10:44:37.018Z,23.43
2018-04-15T10:47:05.417Z,23.23
2018-04-15T10:49:33.871Z,24.67
2018-04-15T10:52:02.291Z,24.15
2018-04-15T10:54:30.710Z,26.36
2018-04-15T10:56:59.164Z,25.03
2018-04-15T10:59:27.540Z,25.84
2018-04-15T11:01:56.283Z,26.37
2018-04-15T11:04:24.668Z,27.18
2018-04-15T11:06:53.050Z,27.39
2018-04-15T11:09:21.478Z,27.41
2018-04-15T11:11:49.873Z,27.23
2018-04-15T11:14:18.258Z,26.24
2018-04-15T11:16:46.646Z,26.38
2018-04-15T11:19:15.115Z,25.69
2018-04-15T11:21:43.553Z,26.13
2018-04-15T11:24:11.948Z,25.57
2018-04-15T11:26:40.458Z,28.06
2018-04-15T11:29:08.852Z,27.53
2018-04-15T11:31:37.217Z,28.21
2018-04-15T11:34:05.675Z,29.31
2018-04-15T11:36:34.065Z,28.71
2018-04-15T11:39:02.485Z,26.48
2018-04-15T11:41:30.946Z,26.02
2018-04-15T11:43:59.339Z,25.80
2018-04-15T11:46:27.749Z,25.82
2018-04-15T11:48:56.298Z,26.85
2018-04-15T11:51:24.754Z,26.77
2018-04-15T11:53:53.434Z,26.19
2018-04-15T11:56:21.965Z,27.22
2018-04-15T11:58:50.388Z,28.23
2018-04-15T12:01:18.882Z,28.89
2018-04-15T12:03:47.302Z,27.75
2018-04-15T12:06:15.725Z,27.13
2018-04-15T12:08:44.148Z,25.34
2018-04-15T12:11:12.550Z,25.64
2018-04-15T12:13:41.059Z,24.77
2018-04-15T12:16:09.510Z,25.31
2018-04-15T12:18:37.967Z,25.29
2018-04-15T12:21:06.432Z,25.10
2018-04-15T12:23:34.849Z,24.99
2018-04-15T12:26:03.359Z,23.34
2018-04-15T12:28:31.803Z,23.19
2018-04-15T12:31:00.453Z,23.50
2018-04-15T12:33:28.887Z,23.13
2018-04-15T12:35:57.398Z,23.39
2018-04-15T12:38:25.878Z,22.98
2018-04-15T12:40:54.388Z,23.32
2018-04-15T12:43:22.812Z,22.81
2018-04-15T12:45:51.360Z,23.47
2018-04-15T12:48:19.807Z,23.24
2018-04-15T12:50:48.504Z,24.11
2018-04-15T12:53:16.962Z,23.95
2018-04-15T12:55:45.435Z,24.68
2018-04-15T12:58:13.981Z,23.87
2018-04-15T13:00:42.517Z,23.85
2018-04-15T13:03:10.930Z,23.33
2018-04-15T13:05:39.355Z,24.90
2018-04-15T13:08:08.064Z,24.67
2018-04-15T13:10:36.502Z,23.93
2018-04-15T13:13:04.975Z,24.12
2018-04-15T13:15:33.442Z,24.52
2018-04-15T13:18:01.935Z,24.12
2018-04-15T13:20:30.391Z,24.05
2018-04-15T13:22:58.946Z,24.25
2018-04-15T13:25:27.381Z,24.70
2018-04-15T13:27:55.790Z,25.84
2018-04-15T13:30:24.158Z,25.09
2018-04-15T13:32:52.556Z,25.19
2018-04-15T13:35:20.921Z,24.47
2018-04-15T13:37:49.365Z,24.38
2018-04-15T13:40:17.830Z,24.40
2018-04-15T13:42:46.354Z,24.79
2018-04-15T13:45:14.726Z,24.58
2018-04-15T13:47:43.187Z,24.53
2018-04-15T13:50:11.612Z,24.78
2018-04-15T13:52:40.088Z,24.44
2018-04-15T13:55:08.532Z,25.41
2018-04-15T13:57:37.012Z,25.12
2018-04-15T14:00:05.538Z,25.65
2018-04-15T14:02:33.955Z,25.72
2018-04-15T14:05:02.381Z,25.14
2018-04-15T14:07:30.922Z,25.31
2018-04-15T14:09:59.369Z,24.70
2018-04-15T14:12:27.834Z,25.18
2018-04-15T14:14:56.379Z,24.57
2018-04-15T14:17:24.848Z,25.01
2018-04-15T14:19:53.793Z,25.19
2018-04-15T14:22:22.223Z,24.58
2018-04-15T14:24:50.782Z,24.97
2018-04-15T14:27:19.221Z,24.86
2018-04-15T14:29:47.691Z,24.87
2018-04-15T14:32:16.121Z,24.66
2018-04-15T14:34:44.545Z,25.37
2018-04-15T14:37:12.981Z,24.07
2018-04-15T14:39:41.395Z,24.27
2018-04-15T14:42:10.191Z,23.79
2018-04-15T14:44:38.597Z,24.81
2018-04-15T14:47:07.206Z,25.13
2018-04-15T14:49:35.641Z,25.32
2018-04-15T14:52:05.072Z,25.13
2018-04-15T14:54:33.844Z,24.36
2018-04-15T14:57:02.384Z,24.97
2018-04-15T14:59:30.846Z,24.79
2018-04-15T15:01:59.348Z,24.11
2018-04-15T15:04:27.750Z,24.79
2018-04-15T15:06:56.239Z,24.57
2018-04-15T15:09:25.260Z,23.88
2018-04-15T15:11:54.980Z,24.41
2018-04-15T15:14:23.471Z,23.47
2018-04-15T15:16:51.889Z,24.48
2018-04-15T15:19:20.376Z,24.58
2018-04-15T15:21:48.790Z,24.14
2018-04-15T15:24:17.223Z,23.17
2018-04-15T15:26:45.648Z,24.09
2018-04-15T15:29:14.047Z,23.90
2018-04-15T15:31:42.481Z,23.83
2018-04-15T15:34:10.902Z,24.20
2018-04-15T15:36:39.405Z,24.81
2018-04-15T15:39:07.871Z,24.64
2018-04-15T15:41:36.281Z,24.89
2018-04-15T15:44:04.687Z,24.53
2018-04-15T15:46:33.106Z,24.17
2018-04-15T15:49:01.481Z,24.82
2018-04-15T15:51:30.158Z,24.45
2018-04-15T15:53:58.568Z,24.09
2018-04-15T15:56:27.010Z,23.17
2018-04-15T15:58:56.042Z,23.96
2018-04-15T16:01:24.424Z,23.88
2018-04-15T16:03:52.816Z,23.84
2018-04-15T16:06:21.230Z,23.63
2018-04-15T16:08:49.658Z,24.13
2018-04-15T16:11:18.049Z,23.77
2018-04-15T16:13:46.508Z,23.36
2018-04-15T16:16:14.986Z,24.04
2018-04-15T16:18:43.425Z,24.14
2018-04-15T16:21:11.790Z,24.07
2018-04-15T16:23:40.192Z,23.75
2018-04-15T16:26:08.565Z,23.81
2018-04-15T16:28:37.091Z,22.76
2018-04-15T16:31:05.493Z,23.07
2018-04-15T16:33:33.932Z,22.84
2018-04-15T16:36:02.344Z,23.10
2018-04-15T16:38:30.738Z,23.40
2018-04-15T16:40:59.120Z,23.01
2018-04-15T16:43:27.575Z,22.81
2018-04-15T16:45:55.982Z,23.37
2018-04-15T16:48:24.692Z,23.25
2018-04-15T16:50:53.168Z,23.18
2018-04-15T16:53:21.551Z,23.24
2018-04-15T16:55:49.912Z,22.92
2018-04-15T16:58:18.674Z,22.76
2018-04-15T17:00:47.221Z,22.90
2018-04-15T17:03:15.656Z,22.65
2018-04-15T17:05:44.042Z,22.90
2018-04-15T17:08:12.431Z,22.57
2018-04-15T17:10:41.240Z,22.51
2018-04-15T17:13:09.652Z,22.49
2018-04-15T17:15:38.084Z,22.77
2018-04-15T17:18:06.514Z,22.50
2018-04-15T17:20:34.864Z,22.73
2018-04-15T17:23:04.307Z,22.59
2018-04-15T17:25:32.877Z,22.95
2018-04-15T17:28:01.312Z,22.58
2018-04-15T17:30:29.683Z,22.28
2018-04-15T17:32:58.064Z,22.30
2018-04-15T17:35:26.470Z,22.65
2018-04-15T17:37:55.138Z,21.98
2018-04-15T17:40:23.525Z,22.19
2018-04-15T17:42:51.952Z,21.94
2018-04-15T17:45:20.376Z,22.07
2018-04-15T17:47:48.872Z,21.81
2018-04-15T17:50:17.279Z,21.55
2018-04-15T17:52:47.832Z,21.55
2018-04-15T17:55:17.680Z,21.85
2018-04-15T17:57:46.135Z,21.94
2018-04-15T18:00:14.538Z,22.00
2018-04-15T18:02:45.643Z,21.55
2018-04-15T18:05:14.126Z,21.32
2018-04-15T18:07:42.506Z,21.43
2018-04-15T18:10:10.958Z,21.34
2018-04-15T18:12:39.822Z,20.64
2018-04-15T18:18:44.184Z,19.48
2018-04-15T18:21:12.739Z,19.60
2018-04-15T18:23:41.154Z,19.67
2018-04-15T18:26:09.640Z,20.16
2018-04-15T18:28:39.469Z,20.26
2018-04-15T18:31:07.951Z,20.09
2018-04-15T18:33:36.439Z,20.28
2018-04-15T18:36:04.876Z,19.90
2018-04-15T18:38:33.810Z,19.44
2018-04-15T18:41:02.305Z,19.46
2018-04-15T18:43:30.853Z,19.23
2018-04-15T18:45:59.289Z,19.20
2018-04-15T18:48:27.717Z,19.03
2018-04-15T18:50:56.125Z,19.17
2018-04-15T18:53:24.529Z,19.06
2018-04-15T18:55:53.049Z,18.87
2018-04-15T18:58:21.986Z,19.10
2018-04-15T19:00:50.399Z,19.31
2018-04-15T19:03:18.809Z,19.06
2018-04-15T19:05:48.696Z,18.20
2018-04-15T19:08:17.260Z,18.71
2018-04-15T19:10:45.782Z,18.78
2018-04-15T19:13:14.236Z,18.69
2018-04-15T19:15:42.951Z,18.73
2018-04-15T19:18:11.341Z,18.68
2018-04-15T19:20:39.708Z,18.60
2018-04-15T19:23:08.191Z,18.37
2018-04-15T19:25:36.567Z,18.08
2018-04-15T19:28:05.186Z,18.15
2018-04-15T19:30:33.582Z,18.28
2018-04-15T19:33:01.972Z,17.81
2018-04-15T19:35:30.614Z,17.75
2018-04-15T19:37:59.010Z,17.68
2018-04-15T19:40:27.425Z,17.77
2018-04-15T19:42:57.356Z,17.84
2018-04-15T19:45:25.938Z,17.88
2018-04-15T19:47:54.422Z,18.07
2018-04-15T19:50:22.857Z,18.13
2018-04-15T19:52:51.267Z,17.63
2018-04-15T19:55:19.955Z,17.74
2018-04-15T19:57:48.434Z,17.89
2018-04-15T20:00:16.823Z,17.74
2018-04-15T20:02:45.272Z,18.00
2018-04-15T20:05:13.721Z,17.67
2018-04-15T20:07:42.090Z,17.58
2018-04-15T20:10:10.543Z,17.99
2018-04-15T20:12:38.949Z,17.71
2018-04-15T20:15:07.402Z,17.65
2018-04-15T20:17:36.489Z,17.46
2018-04-15T20:20:05.076Z,17.50
2018-04-15T20:22:33.492Z,17.62
2018-04-15T20:25:01.894Z,17.76
2018-04-15T20:27:30.328Z,17.66
2018-04-15T20:29:58.771Z,17.74
2018-04-15T20:32:27.175Z,18.13
2018-04-15T20:34:55.661Z,18.18
2018-04-15T20:37:24.119Z,18.25
2018-04-15T20:39:52.722Z,18.18
2018-04-15T20:42:23.453Z,18.21
2018-04-15T20:44:52.228Z,18.57
2018-04-15T20:47:21.197Z,18.31
2018-04-15T20:49:49.728Z,18.22
2018-04-15T20:52:18.140Z,17.90
2018-04-15T20:54:46.672Z,17.97
2018-04-15T20:57:15.112Z,18.07
2018-04-15T20:59:43.491Z,17.83
2018-04-15T21:02:11.963Z,17.57
2018-04-15T21:04:40.427Z,17.69
2018-04-15T21:07:08.822Z,17.79
2018-04-15T21:09:37.229Z,17.85
2018-04-15T21:12:05.692Z,18.04
2018-04-15T21:14:34.074Z,18.16
2018-04-15T21:17:02.487Z,18.17
2018-04-15T21:19:30.860Z,18.04
2018-04-15T21:21:59.250Z,18.19
2018-04-15T21:24:27.680Z,17.90
2018-04-15T21:26:56.159Z,18.28
2018-04-15T21:29:24.520Z,18.06
2018-04-15T21:31:52.885Z,18.16
2018-04-15T21:34:21.604Z,18.14
2018-04-15T21:36:49.967Z,17.99
2018-04-15T21:39:18.453Z,18.41
2018-04-15T21:41:46.834Z,18.49
2018-04-15T21:44:15.232Z,18.09
2018-04-15T21:46:43.637Z,17.94
2018-04-15T21:49:12.188Z,17.75
2018-04-15T21:51:41.156Z,17.84
2018-04-15T21:54:09.620Z,17.90
2018-04-15T21:56:38.184Z,18.03
2018-04-15T21:59:06.573Z,17.90
2018-04-15T22:01:35.311Z,17.88
2018-04-15T22:04:03.803Z,18.07
2018-04-15T22:06:32.575Z,18.14
2018-04-15T22:09:01.135Z,18.00
2018-04-15T22:11:41.071Z,18.21
2018-04-15T22:14:09.575Z,18.32
2018-04-15T22:16:37.934Z,18.29
2018-04-15T22:19:06.445Z,18.14
2018-04-15T22:21:34.863Z,18.37
2018-04-15T22:24:04.010Z,17.98
2018-04-15T22:26:32.808Z,18.40
2018-04-15T22:29:01.167Z,18.10
2018-04-15T22:31:29.563Z,18.31
2018-04-15T22:33:57.968Z,18.46
2018-04-15T22:36:26.333Z,18.44
2018-04-15T22:38:54.801Z,18.10
2018-04-15T22:41:23.195Z,18.22
2018-04-15T22:43:51.593Z,17.48
2018-04-15T22:46:19.959Z,17.14
2018-04-15T22:48:48.404Z,17.22
2018-04-15T22:51:19.048Z,17.62
2018-04-15T22:53:47.409Z,17.85
2018-04-15T22:56:15.827Z,18.11
2018-04-15T22:58:47.071Z,17.93
2018-04-15T23:01:16.393Z,17.75
2018-04-15T23:03:44.785Z,17.78
2018-04-15T23:06:13.222Z,18.05
2018-04-15T23:08:41.597Z,17.60
2018-04-15T23:11:09.981Z,17.83
2018-04-15T23:13:38.753Z,17.67
2018-04-15T23:16:07.123Z,17.71
2018-04-15T23:18:35.495Z,17.93
2018-04-15T23:21:03.850Z,17.91
2018-04-15T23:23:32.239Z,18.00
2018-04-15T23:26:00.748Z,18.23
2018-04-15T23:28:29.152Z,18.41
2018-04-15T23:30:57.576Z,18.58
2018-04-15T23:33:26.182Z,18.15
2018-04-15T23:35:54.601Z,18.18
2018-04-15T23:38:23.011Z,18.16
2018-04-15T23:40:51.764Z,17.88
2018-04-15T23:43:20.399Z,17.92
2018-04-15T23:45:48.768Z,18.04
2018-04-15T23:48:17.132Z,17.69
2018-04-15T23:50:45.505Z,17.49
2018-04-15T23:53:13.935Z,17.65
2018-04-15T23:55:42.312Z,18.24
2018-04-15T23:58:10.686Z,17.87
